sensor_id;sensor_type;location;lat;lon;timestamp;pressure;altitude;pressure_sealevel;temperature;humidity
21988;BME280;11158;53.404;-1.510;2023-07-30T00:01:29;99422.28;;;18.50;52.81
21988;BME280;11158;53.404;-1.510;2023-07-30T00:04:13;99431.22;;;18.88;52.22
21988;BME280;11158;53.404;-1.510;2023-07-30T00:06:56;99433.50;;;19.17;51.14
21988;BME280;11158;53.404;-1.510;2023-07-30T00:09:41;99440.13;;;19.36;50.76
21988;BME280;11158;53.404;-1.510;2023-07-30T00:12:25;99425.47;;;19.32;50.40
21988;BME280;11158;53.404;-1.510;2023-07-30T00:15:09;99428.41;;;19.20;51.28
21988;BME280;11158;53.404;-1.510;2023-07-30T00:17:54;99422.25;;;19.40;50.61
21988;BME280;11158;53.404;-1.510;2023-07-30T00:20:38;99425.38;;;19.17;51.37
21988;BME280;11158;53.404;-1.510;2023-07-30T00:23:22;99425.34;;;19.01;51.75
21988;BME280;11158;53.404;-1.510;2023-07-30T00:26:06;99428.34;;;19.10;51.56
21988;BME280;11158;53.404;-1.510;2023-07-30T00:28:50;99418.38;;;19.21;51.32
21988;BME280;11158;53.404;-1.510;2023-07-30T00:31:34;99423.38;;;19.55;50.39
21988;BME280;11158;53.404;-1.510;2023-07-30T00:34:18;99418.13;;;19.28;50.95
21988;BME280;11158;53.404;-1.510;2023-07-30T00:37:02;99414.06;;;19.25;51.14
21988;BME280;11158;53.404;-1.510;2023-07-30T00:39:46;99415.66;;;19.26;51.29
21988;BME280;11158;53.404;-1.510;2023-07-30T00:42:30;99421.72;;;19.54;50.41
21988;BME280;11158;53.404;-1.510;2023-07-30T00:45:14;99419.00;;;19.43;50.76
21988;BME280;11158;53.404;-1.510;2023-07-30T00:47:59;99414.50;;;19.01;51.87
21988;BME280;11158;53.404;-1.510;2023-07-30T00:50:44;99419.47;;;19.20;51.73
21988;BME280;11158;53.404;-1.510;2023-07-30T00:53:29;99412.47;;;19.34;51.01
21988;BME280;11158;53.404;-1.510;2023-07-30T00:56:13;99408.56;;;19.04;51.64
21988;BME280;11158;53.404;-1.510;2023-07-30T00:58:58;99399.56;;;18.94;52.04
21988;BME280;11158;53.404;-1.510;2023-07-30T01:01:46;99400.97;;;19.07;51.78
21988;BME280;11158;53.404;-1.510;2023-07-30T01:04:31;99401.06;;;19.27;51.31
21988;BME280;11158;53.404;-1.510;2023-07-30T01:07:15;99408.97;;;19.49;51.02
21988;BME280;11158;53.404;-1.510;2023-07-30T01:10:00;99412.84;;;19.79;50.14
21988;BME280;11158;53.404;-1.510;2023-07-30T01:12:45;99412.78;;;19.58;50.77
21988;BME280;11158;53.404;-1.510;2023-07-30T01:15:31;99410.56;;;19.30;51.38
21988;BME280;11158;53.404;-1.510;2023-07-30T01:18:15;99405.69;;;19.37;50.96
21988;BME280;11158;53.404;-1.510;2023-07-30T01:20:59;99405.94;;;19.30;51.09
21988;BME280;11158;53.404;-1.510;2023-07-30T01:23:43;99411.97;;;19.63;50.40
21988;BME280;11158;53.404;-1.510;2023-07-30T01:26:33;99411.25;;;19.73;50.50
21988;BME280;11158;53.404;-1.510;2023-07-30T01:29:28;99410.91;;;19.59;50.77
21988;BME280;11158;53.404;-1.510;2023-07-30T01:32:16;99395.25;;;20.02;49.60
21988;BME280;11158;53.404;-1.510;2023-07-30T01:35:01;99408.81;;;20.02;49.63
21988;BME280;11158;53.404;-1.510;2023-07-30T01:37:48;99405.03;;;20.13;49.28
21988;BME280;11158;53.404;-1.510;2023-07-30T01:40:33;99403.09;;;20.49;48.48
21988;BME280;11158;53.404;-1.510;2023-07-30T01:43:17;99396.31;;;20.47;48.29
21988;BME280;11158;53.404;-1.510;2023-07-30T01:46:02;99397.72;;;20.34;48.71
21988;BME280;11158;53.404;-1.510;2023-07-30T01:48:46;99394.44;;;19.96;49.97
21988;BME280;11158;53.404;-1.510;2023-07-30T01:51:30;99403.66;;;19.85;50.58
21988;BME280;11158;53.404;-1.510;2023-07-30T01:54:14;99394.97;;;20.44;48.86
21988;BME280;11158;53.404;-1.510;2023-07-30T01:56:59;99386.56;;;20.30;49.32
21988;BME280;11158;53.404;-1.510;2023-07-30T01:59:44;99391.44;;;20.44;48.74
21988;BME280;11158;53.404;-1.510;2023-07-30T02:02:28;99399.28;;;20.56;48.48
21988;BME280;11158;53.404;-1.510;2023-07-30T02:05:12;99407.72;;;20.44;48.75
21988;BME280;11158;53.404;-1.510;2023-07-30T02:07:57;99401.47;;;20.74;48.19
21988;BME280;11158;53.404;-1.510;2023-07-30T02:10:42;99403.91;;;20.76;47.98
21988;BME280;11158;53.404;-1.510;2023-07-30T02:13:26;99404.75;;;20.30;49.18
21988;BME280;11158;53.404;-1.510;2023-07-30T02:16:09;99395.53;;;20.16;49.41
21988;BME280;11158;53.404;-1.510;2023-07-30T02:18:53;99397.69;;;19.83;50.05
21988;BME280;11158;53.404;-1.510;2023-07-30T02:21:37;99395.59;;;19.17;51.81
21988;BME280;11158;53.404;-1.510;2023-07-30T02:24:26;99397.72;;;18.19;53.85
21988;BME280;11158;53.404;-1.510;2023-07-30T02:27:10;99388.03;;;18.71;52.74
21988;BME280;11158;53.404;-1.510;2023-07-30T02:29:54;99402.66;;;19.18;51.45
21988;BME280;11158;53.404;-1.510;2023-07-30T02:32:38;99400.63;;;19.61;49.98
21988;BME280;11158;53.404;-1.510;2023-07-30T02:35:22;99399.84;;;18.92;51.97
21988;BME280;11158;53.404;-1.510;2023-07-30T02:38:06;99406.50;;;18.37;53.43
21988;BME280;11158;53.404;-1.510;2023-07-30T02:40:50;99401.88;;;18.75;52.76
21988;BME280;11158;53.404;-1.510;2023-07-30T02:43:34;99390.06;;;18.86;52.55
21988;BME280;11158;53.404;-1.510;2023-07-30T02:46:18;99389.50;;;18.79;52.79
21988;BME280;11158;53.404;-1.510;2023-07-30T02:49:02;99395.50;;;18.11;54.50
21988;BME280;11158;53.404;-1.510;2023-07-30T02:51:46;99381.84;;;18.28;54.18
21988;BME280;11158;53.404;-1.510;2023-07-30T02:54:32;99385.19;;;18.46;53.83
21988;BME280;11158;53.404;-1.510;2023-07-30T02:57:16;99383.25;;;18.41;53.77
21988;BME280;11158;53.404;-1.510;2023-07-30T03:00:00;99391.34;;;18.36;53.45
21988;BME280;11158;53.404;-1.510;2023-07-30T03:02:44;99382.56;;;18.56;53.03
21988;BME280;11158;53.404;-1.510;2023-07-30T03:05:28;99388.78;;;18.56;53.23
21988;BME280;11158;53.404;-1.510;2023-07-30T03:08:12;99387.88;;;18.40;53.07
21988;BME280;11158;53.404;-1.510;2023-07-30T03:10:58;99392.88;;;19.07;51.78
21988;BME280;11158;53.404;-1.510;2023-07-30T03:13:43;99400.19;;;18.63;52.69
21988;BME280;11158;53.404;-1.510;2023-07-30T03:16:27;99398.63;;;18.73;52.08
21988;BME280;11158;53.404;-1.510;2023-07-30T03:19:11;99397.75;;;19.15;51.13
21988;BME280;11158;53.404;-1.510;2023-07-30T03:21:55;99401.31;;;18.73;51.90
21988;BME280;11158;53.404;-1.510;2023-07-30T03:24:39;99398.06;;;19.29;50.49
21988;BME280;11158;53.404;-1.510;2023-07-30T03:27:23;99397.19;;;19.08;51.19
21988;BME280;11158;53.404;-1.510;2023-07-30T03:30:07;99396.59;;;18.90;51.32
21988;BME280;11158;53.404;-1.510;2023-07-30T03:32:53;99392.13;;;19.27;50.54
21988;BME280;11158;53.404;-1.510;2023-07-30T03:35:37;99406.84;;;18.83;51.30
21988;BME280;11158;53.404;-1.510;2023-07-30T03:38:21;99391.75;;;18.97;50.70
21988;BME280;11158;53.404;-1.510;2023-07-30T03:41:05;99401.41;;;19.51;49.97
21988;BME280;11158;53.404;-1.510;2023-07-30T03:43:50;99403.47;;;19.23;50.62
21988;BME280;11158;53.404;-1.510;2023-07-30T03:46:35;99387.94;;;19.87;49.12
21988;BME280;11158;53.404;-1.510;2023-07-30T03:49:19;99399.94;;;19.13;51.09
21988;BME280;11158;53.404;-1.510;2023-07-30T03:52:03;99403.00;;;19.42;49.98
21988;BME280;11158;53.404;-1.510;2023-07-30T03:54:47;99404.25;;;19.14;50.77
21988;BME280;11158;53.404;-1.510;2023-07-30T03:57:31;99407.59;;;19.41;50.53
21988;BME280;11158;53.404;-1.510;2023-07-30T04:00:15;99411.59;;;19.23;50.32
21988;BME280;11158;53.404;-1.510;2023-07-30T04:02:59;99416.19;;;19.13;50.86
21988;BME280;11158;53.404;-1.510;2023-07-30T04:05:43;99409.91;;;19.07;50.90
21988;BME280;11158;53.404;-1.510;2023-07-30T04:08:27;99410.63;;;19.60;49.81
21988;BME280;11158;53.404;-1.510;2023-07-30T04:11:11;99415.91;;;19.19;50.68
21988;BME280;11158;53.404;-1.510;2023-07-30T04:13:55;99415.41;;;19.22;50.74
21988;BME280;11158;53.404;-1.510;2023-07-30T04:16:40;99410.53;;;18.72;51.27
21988;BME280;11158;53.404;-1.510;2023-07-30T04:19:24;99410.00;;;18.75;51.47
21988;BME280;11158;53.404;-1.510;2023-07-30T04:22:08;99414.63;;;19.37;50.14
21988;BME280;11158;53.404;-1.510;2023-07-30T04:24:52;99418.44;;;19.41;49.99
21988;BME280;11158;53.404;-1.510;2023-07-30T04:27:37;99418.03;;;19.85;48.87
21988;BME280;11158;53.404;-1.510;2023-07-30T04:30:21;99429.16;;;19.89;48.77
21988;BME280;11158;53.404;-1.510;2023-07-30T04:33:05;99431.72;;;19.38;49.74
21988;BME280;11158;53.404;-1.510;2023-07-30T04:35:49;99427.50;;;19.04;51.03
21988;BME280;11158;53.404;-1.510;2023-07-30T04:38:33;99440.84;;;18.36;53.14
21988;BME280;11158;53.404;-1.510;2023-07-30T04:41:17;99432.25;;;18.77;51.71
21988;BME280;11158;53.404;-1.510;2023-07-30T04:44:02;99427.63;;;19.35;50.38
21988;BME280;11158;53.404;-1.510;2023-07-30T04:46:47;99424.31;;;19.18;50.45
21988;BME280;11158;53.404;-1.510;2023-07-30T04:49:31;99422.56;;;18.49;52.02
21988;BME280;11158;53.404;-1.510;2023-07-30T04:52:15;99428.94;;;18.75;52.08
21988;BME280;11158;53.404;-1.510;2023-07-30T04:54:59;99427.53;;;19.10;50.50
21988;BME280;11158;53.404;-1.510;2023-07-30T04:57:43;99430.69;;;18.49;51.96
21988;BME280;11158;53.404;-1.510;2023-07-30T05:00:27;99441.91;;;18.30;52.65
21988;BME280;11158;53.404;-1.510;2023-07-30T05:03:11;99443.88;;;18.40;52.77
21988;BME280;11158;53.404;-1.510;2023-07-30T05:05:55;99439.31;;;18.46;52.00
21988;BME280;11158;53.404;-1.510;2023-07-30T05:08:39;99436.91;;;18.92;51.27
21988;BME280;11158;53.404;-1.510;2023-07-30T05:11:23;99441.66;;;18.74;51.48
21988;BME280;11158;53.404;-1.510;2023-07-30T05:14:07;99445.31;;;18.90;51.46
21988;BME280;11158;53.404;-1.510;2023-07-30T05:16:51;99448.00;;;19.53;49.82
21988;BME280;11158;53.404;-1.510;2023-07-30T05:19:35;99446.28;;;19.21;50.11
21988;BME280;11158;53.404;-1.510;2023-07-30T05:22:19;99447.88;;;18.70;51.56
21988;BME280;11158;53.404;-1.510;2023-07-30T05:25:03;99444.84;;;19.03;50.79
21988;BME280;11158;53.404;-1.510;2023-07-30T05:27:47;99440.94;;;18.84;51.08
21988;BME280;11158;53.404;-1.510;2023-07-30T05:30:31;99446.72;;;18.60;51.66
21988;BME280;11158;53.404;-1.510;2023-07-30T05:33:15;99442.28;;;18.44;51.80
21988;BME280;11158;53.404;-1.510;2023-07-30T05:35:59;99433.78;;;18.68;51.27
21988;BME280;11158;53.404;-1.510;2023-07-30T05:38:43;99445.97;;;19.13;50.13
21988;BME280;11158;53.404;-1.510;2023-07-30T05:41:27;99450.16;;;19.41;49.09
21988;BME280;11158;53.404;-1.510;2023-07-30T05:44:11;99451.44;;;19.23;49.56
21988;BME280;11158;53.404;-1.510;2023-07-30T05:46:55;99442.91;;;19.67;48.80
21988;BME280;11158;53.404;-1.510;2023-07-30T05:49:39;99455.41;;;19.10;50.14
21988;BME280;11158;53.404;-1.510;2023-07-30T05:52:23;99459.00;;;19.99;47.82
21988;BME280;11158;53.404;-1.510;2023-07-30T05:55:08;99466.91;;;19.28;49.55
21988;BME280;11158;53.404;-1.510;2023-07-30T05:57:53;99455.88;;;19.55;48.94
21988;BME280;11158;53.404;-1.510;2023-07-30T06:00:37;99461.25;;;19.44;49.08
21988;BME280;11158;53.404;-1.510;2023-07-30T06:03:21;99464.88;;;18.60;51.38
21988;BME280;11158;53.404;-1.510;2023-07-30T06:06:06;99456.38;;;19.46;49.37
21988;BME280;11158;53.404;-1.510;2023-07-30T06:08:50;99464.34;;;19.05;49.79
21988;BME280;11158;53.404;-1.510;2023-07-30T06:11:34;99472.09;;;18.87;50.70
21988;BME280;11158;53.404;-1.510;2023-07-30T06:14:18;99476.81;;;19.07;49.86
21988;BME280;11158;53.404;-1.510;2023-07-30T06:17:02;99481.13;;;19.08;50.22
21988;BME280;11158;53.404;-1.510;2023-07-30T06:19:46;99479.44;;;18.91;49.76
21988;BME280;11158;53.404;-1.510;2023-07-30T06:22:30;99488.50;;;19.70;48.80
21988;BME280;11158;53.404;-1.510;2023-07-30T06:25:15;99484.44;;;19.73;48.30
21988;BME280;11158;53.404;-1.510;2023-07-30T06:27:59;99482.38;;;19.37;49.41
21988;BME280;11158;53.404;-1.510;2023-07-30T06:30:43;99484.50;;;19.25;49.67
21988;BME280;11158;53.404;-1.510;2023-07-30T06:33:27;99494.88;;;19.49;48.83
21988;BME280;11158;53.404;-1.510;2023-07-30T06:36:11;99495.19;;;19.52;48.89
21988;BME280;11158;53.404;-1.510;2023-07-30T06:38:55;99494.00;;;18.85;50.73
21988;BME280;11158;53.404;-1.510;2023-07-30T06:41:39;99482.81;;;18.39;51.44
21988;BME280;11158;53.404;-1.510;2023-07-30T06:44:23;99511.47;;;18.67;51.90
21988;BME280;11158;53.404;-1.510;2023-07-30T06:47:09;99502.28;;;18.73;51.14
21988;BME280;11158;53.404;-1.510;2023-07-30T06:49:53;99502.75;;;18.97;51.37
21988;BME280;11158;53.404;-1.510;2023-07-30T06:52:37;99501.97;;;19.02;51.10
21988;BME280;11158;53.404;-1.510;2023-07-30T06:55:21;99507.16;;;19.66;49.74
21988;BME280;11158;53.404;-1.510;2023-07-30T06:58:05;99499.50;;;19.53;50.82
21988;BME280;11158;53.404;-1.510;2023-07-30T07:00:49;99500.75;;;18.82;52.30
21988;BME280;11158;53.404;-1.510;2023-07-30T07:03:33;99504.47;;;19.14;51.84
21988;BME280;11158;53.404;-1.510;2023-07-30T07:06:17;99512.56;;;19.09;51.55
21988;BME280;11158;53.404;-1.510;2023-07-30T07:09:01;99503.75;;;18.86;52.24
21988;BME280;11158;53.404;-1.510;2023-07-30T07:11:46;99510.50;;;19.84;49.39
21988;BME280;11158;53.404;-1.510;2023-07-30T07:14:30;99513.53;;;19.98;48.82
21988;BME280;11158;53.404;-1.510;2023-07-30T07:17:14;99524.06;;;19.84;48.86
21988;BME280;11158;53.404;-1.510;2023-07-30T07:19:58;99526.53;;;20.06;48.58
21988;BME280;11158;53.404;-1.510;2023-07-30T07:22:43;99534.47;;;20.23;48.41
21988;BME280;11158;53.404;-1.510;2023-07-30T07:25:27;99521.00;;;21.65;45.37
21988;BME280;11158;53.404;-1.510;2023-07-30T07:28:11;99525.88;;;21.68;45.22
21988;BME280;11158;53.404;-1.510;2023-07-30T07:30:55;99535.56;;;20.53;48.45
21988;BME280;11158;53.404;-1.510;2023-07-30T07:33:39;99535.03;;;19.57;51.41
21988;BME280;11158;53.404;-1.510;2023-07-30T07:36:24;99540.44;;;19.52;51.24
21988;BME280;11158;53.404;-1.510;2023-07-30T07:39:08;99540.09;;;20.01;50.44
21988;BME280;11158;53.404;-1.510;2023-07-30T07:41:52;99547.09;;;19.81;50.50
21988;BME280;11158;53.404;-1.510;2023-07-30T07:44:36;99546.25;;;19.28;52.12
21988;BME280;11158;53.404;-1.510;2023-07-30T07:47:20;99549.78;;;19.76;51.83
21988;BME280;11158;53.404;-1.510;2023-07-30T07:50:05;99544.28;;;19.61;51.05
21988;BME280;11158;53.404;-1.510;2023-07-30T07:52:49;99545.59;;;19.58;51.75
21988;BME280;11158;53.404;-1.510;2023-07-30T07:55:34;99556.28;;;19.75;50.77
21988;BME280;11158;53.404;-1.510;2023-07-30T07:58:18;99566.19;;;20.17;49.46
21988;BME280;11158;53.404;-1.510;2023-07-30T08:01:02;99569.28;;;19.25;52.98
21988;BME280;11158;53.404;-1.510;2023-07-30T08:03:46;99573.78;;;18.45;55.31
21988;BME280;11158;53.404;-1.510;2023-07-30T08:06:33;99578.59;;;18.97;54.11
21988;BME280;11158;53.404;-1.510;2023-07-30T08:09:17;99585.22;;;20.33;50.84
21988;BME280;11158;53.404;-1.510;2023-07-30T08:12:02;99572.97;;;21.32;47.64
21988;BME280;11158;53.404;-1.510;2023-07-30T08:14:46;99566.13;;;22.21;45.02
21988;BME280;11158;53.404;-1.510;2023-07-30T08:17:30;99568.09;;;22.10;44.69
21988;BME280;11158;53.404;-1.510;2023-07-30T08:20:14;99567.19;;;21.75;44.83
21988;BME280;11158;53.404;-1.510;2023-07-30T08:22:59;99565.66;;;21.28;46.00
21988;BME280;11158;53.404;-1.510;2023-07-30T08:25:43;99575.06;;;19.92;50.71
21988;BME280;11158;53.404;-1.510;2023-07-30T08:28:27;99580.06;;;19.15;54.16
21988;BME280;11158;53.404;-1.510;2023-07-30T08:31:11;99576.09;;;19.33;54.04
21988;BME280;11158;53.404;-1.510;2023-07-30T08:33:55;99583.28;;;20.23;51.70
21988;BME280;11158;53.404;-1.510;2023-07-30T08:36:39;99570.06;;;20.67;50.42
21988;BME280;11158;53.404;-1.510;2023-07-30T08:39:23;99577.41;;;20.98;49.74
21988;BME280;11158;53.404;-1.510;2023-07-30T08:42:07;99576.03;;;20.80;49.83
21988;BME280;11158;53.404;-1.510;2023-07-30T08:44:51;99576.84;;;20.96;49.32
21988;BME280;11158;53.404;-1.510;2023-07-30T08:47:35;99573.34;;;20.69;49.48
21988;BME280;11158;53.404;-1.510;2023-07-30T08:50:19;99574.13;;;20.70;49.03
21988;BME280;11158;53.404;-1.510;2023-07-30T08:53:03;99580.09;;;20.57;48.82
21988;BME280;11158;53.404;-1.510;2023-07-30T08:55:49;99579.53;;;20.39;49.48
21988;BME280;11158;53.404;-1.510;2023-07-30T08:58:34;99581.59;;;20.06;49.54
21988;BME280;11158;53.404;-1.510;2023-07-30T09:01:18;99595.00;;;20.39;49.51
21988;BME280;11158;53.404;-1.510;2023-07-30T09:04:06;99590.31;;;21.72;46.66
21988;BME280;11158;53.404;-1.510;2023-07-30T09:06:50;99594.22;;;21.05;48.74
21988;BME280;11158;53.404;-1.510;2023-07-30T09:09:35;99589.66;;;19.81;51.27
21988;BME280;11158;53.404;-1.510;2023-07-30T09:12:34;99590.19;;;21.07;49.08
21988;BME280;11158;53.404;-1.510;2023-07-30T09:15:19;99580.06;;;21.44;48.18
21988;BME280;11158;53.404;-1.510;2023-07-30T09:18:04;99581.63;;;22.30;46.32
21988;BME280;11158;53.404;-1.510;2023-07-30T09:20:49;99587.88;;;21.71;46.18
21988;BME280;11158;53.404;-1.510;2023-07-30T09:23:39;99582.72;;;22.29;45.34
21988;BME280;11158;53.404;-1.510;2023-07-30T09:26:24;99581.81;;;22.78;44.39
21988;BME280;11158;53.404;-1.510;2023-07-30T09:29:09;99580.47;;;22.42;44.21
21988;BME280;11158;53.404;-1.510;2023-07-30T09:31:54;99582.25;;;22.12;45.18
21988;BME280;11158;53.404;-1.510;2023-07-30T09:34:44;99586.09;;;22.90;43.64
21988;BME280;11158;53.404;-1.510;2023-07-30T09:37:29;99591.53;;;23.24;43.22
21988;BME280;11158;53.404;-1.510;2023-07-30T09:40:15;99593.66;;;22.14;45.13
21988;BME280;11158;53.404;-1.510;2023-07-30T09:43:03;99599.41;;;21.06;49.94
21988;BME280;11158;53.404;-1.510;2023-07-30T09:45:47;99614.13;;;19.96;52.56
21988;BME280;11158;53.404;-1.510;2023-07-30T09:48:32;99628.06;;;20.30;52.75
21988;BME280;11158;53.404;-1.510;2023-07-30T09:51:17;99631.75;;;20.82;52.06
21988;BME280;11158;53.404;-1.510;2023-07-30T09:54:03;99625.47;;;20.66;51.65
21988;BME280;11158;53.404;-1.510;2023-07-30T09:56:48;99623.19;;;20.27;52.57
21988;BME280;11158;53.404;-1.510;2023-07-30T09:59:32;99621.03;;;20.35;52.19
21988;BME280;11158;53.404;-1.510;2023-07-30T10:02:17;99617.59;;;20.80;51.81
21988;BME280;11158;53.404;-1.510;2023-07-30T10:05:03;99614.59;;;20.82;50.78
21988;BME280;11158;53.404;-1.510;2023-07-30T10:07:54;99617.69;;;21.96;48.69
21988;BME280;11158;53.404;-1.510;2023-07-30T10:10:41;99611.56;;;22.75;46.34
21988;BME280;11158;53.404;-1.510;2023-07-30T10:13:25;99617.75;;;21.76;45.80
21988;BME280;11158;53.404;-1.510;2023-07-30T10:16:11;99625.47;;;22.24;44.94
21988;BME280;11158;53.404;-1.510;2023-07-30T10:18:56;99606.72;;;23.01;43.55
21988;BME280;11158;53.404;-1.510;2023-07-30T10:21:42;99608.72;;;23.73;42.70
21988;BME280;11158;53.404;-1.510;2023-07-30T10:24:26;99609.03;;;23.95;41.79
21988;BME280;11158;53.404;-1.510;2023-07-30T10:27:23;99608.13;;;22.93;42.63
21988;BME280;11158;53.404;-1.510;2023-07-30T10:30:15;99610.06;;;23.51;42.28
21988;BME280;11158;53.404;-1.510;2023-07-30T10:33:00;99606.28;;;23.47;41.52
21988;BME280;11158;53.404;-1.510;2023-07-30T10:35:46;99615.63;;;22.77;41.26
21988;BME280;11158;53.404;-1.510;2023-07-30T10:38:31;99611.16;;;22.52;41.52
21988;BME280;11158;53.404;-1.510;2023-07-30T10:41:16;99608.59;;;21.51;42.88
21988;BME280;11158;53.404;-1.510;2023-07-30T10:44:03;99615.97;;;21.05;44.37
21988;BME280;11158;53.404;-1.510;2023-07-30T10:46:47;99608.88;;;22.25;42.09
21988;BME280;11158;53.404;-1.510;2023-07-30T10:49:38;99608.03;;;21.65;41.59
21988;BME280;11158;53.404;-1.510;2023-07-30T10:52:24;99610.84;;;23.28;39.60
21988;BME280;11158;53.404;-1.510;2023-07-30T10:55:10;99605.69;;;23.26;39.11
21988;BME280;11158;53.404;-1.510;2023-07-30T10:57:54;99613.75;;;22.73;40.23
21988;BME280;11158;53.404;-1.510;2023-07-30T11:00:39;99613.53;;;23.04;39.34
21988;BME280;11158;53.404;-1.510;2023-07-30T11:03:27;99619.06;;;22.49;40.84
21988;BME280;11158;53.404;-1.510;2023-07-30T11:06:11;99630.38;;;21.05;42.95
21988;BME280;11158;53.404;-1.510;2023-07-30T11:08:55;99634.63;;;21.73;41.99
21988;BME280;11158;53.404;-1.510;2023-07-30T11:11:40;99631.22;;;22.22;40.61
21988;BME280;11158;53.404;-1.510;2023-07-30T11:14:26;99629.59;;;23.05;40.16
21988;BME280;11158;53.404;-1.510;2023-07-30T11:17:11;99629.28;;;23.36;39.02
21988;BME280;11158;53.404;-1.510;2023-07-30T11:19:55;99624.03;;;22.42;40.68
21988;BME280;11158;53.404;-1.510;2023-07-30T11:22:39;99630.06;;;23.41;38.64
21988;BME280;11158;53.404;-1.510;2023-07-30T11:25:23;99619.97;;;23.42;38.34
21988;BME280;11158;53.404;-1.510;2023-07-30T11:28:07;99628.28;;;23.56;38.04
21988;BME280;11158;53.404;-1.510;2023-07-30T11:30:51;99628.13;;;23.95;37.30
21988;BME280;11158;53.404;-1.510;2023-07-30T11:33:42;99638.72;;;23.78;37.38
21988;BME280;11158;53.404;-1.510;2023-07-30T11:36:27;99637.44;;;23.94;37.72
21988;BME280;11158;53.404;-1.510;2023-07-30T11:39:11;99633.78;;;24.47;37.60
21988;BME280;11158;53.404;-1.510;2023-07-30T11:41:56;99636.66;;;24.56;36.57
21988;BME280;11158;53.404;-1.510;2023-07-30T11:44:41;99630.97;;;24.52;36.83
21988;BME280;11158;53.404;-1.510;2023-07-30T11:47:25;99640.34;;;24.65;36.84
21988;BME280;11158;53.404;-1.510;2023-07-30T11:50:12;99633.38;;;23.09;40.01
21988;BME280;11158;53.404;-1.510;2023-07-30T11:52:56;99621.16;;;23.84;39.17
21988;BME280;11158;53.404;-1.510;2023-07-30T11:55:41;99629.66;;;23.82;38.62
21988;BME280;11158;53.404;-1.510;2023-07-30T11:58:28;99625.00;;;23.83;38.45
21988;BME280;11158;53.404;-1.510;2023-07-30T12:01:13;99631.44;;;24.35;37.76
21988;BME280;11158;53.404;-1.510;2023-07-30T12:03:59;99635.69;;;24.03;37.51
21988;BME280;11158;53.404;-1.510;2023-07-30T12:06:47;99637.81;;;23.29;39.18
21988;BME280;11158;53.404;-1.510;2023-07-30T12:09:35;99641.72;;;24.00;38.17
21988;BME280;11158;53.404;-1.510;2023-07-30T12:12:19;99641.84;;;23.37;39.44
21988;BME280;11158;53.404;-1.510;2023-07-30T12:15:10;99640.47;;;24.12;38.45
21988;BME280;11158;53.404;-1.510;2023-07-30T12:17:55;99638.06;;;24.29;37.52
21988;BME280;11158;53.404;-1.510;2023-07-30T12:20:39;99634.38;;;24.20;37.93
21988;BME280;11158;53.404;-1.510;2023-07-30T12:23:23;99634.28;;;23.82;38.56
21988;BME280;11158;53.404;-1.510;2023-07-30T12:26:07;99638.66;;;23.83;38.88
21988;BME280;11158;53.404;-1.510;2023-07-30T12:28:51;99639.56;;;24.40;37.59
21988;BME280;11158;53.404;-1.510;2023-07-30T12:31:35;99620.09;;;24.28;38.04
21988;BME280;11158;53.404;-1.510;2023-07-30T12:34:19;99626.63;;;24.27;38.51
21988;BME280;11158;53.404;-1.510;2023-07-30T12:37:04;99632.28;;;23.63;38.37
21988;BME280;11158;53.404;-1.510;2023-07-30T12:39:48;99637.28;;;22.93;40.53
21988;BME280;11158;53.404;-1.510;2023-07-30T12:42:32;99637.28;;;22.93;40.37
21988;BME280;11158;53.404;-1.510;2023-07-30T12:45:16;99631.28;;;23.83;39.11
21988;BME280;11158;53.404;-1.510;2023-07-30T12:48:01;99647.91;;;22.55;40.57
21988;BME280;11158;53.404;-1.510;2023-07-30T12:50:45;99646.03;;;22.50;40.85
21988;BME280;11158;53.404;-1.510;2023-07-30T12:53:29;99648.72;;;22.95;40.28
21988;BME280;11158;53.404;-1.510;2023-07-30T12:56:13;99647.19;;;23.18;39.93
21988;BME280;11158;53.404;-1.510;2023-07-30T12:58:58;99641.25;;;22.71;41.23
21988;BME280;11158;53.404;-1.510;2023-07-30T13:01:59;99646.34;;;22.44;41.59
21988;BME280;11158;53.404;-1.510;2023-07-30T13:04:43;99644.28;;;22.65;41.37
21988;BME280;11158;53.404;-1.510;2023-07-30T13:07:27;99636.25;;;22.89;40.11
21988;BME280;11158;53.404;-1.510;2023-07-30T13:10:11;99640.75;;;24.53;38.00
21988;BME280;11158;53.404;-1.510;2023-07-30T13:12:55;99638.00;;;25.43;36.13
21988;BME280;11158;53.404;-1.510;2023-07-30T13:15:39;99639.84;;;24.96;36.76
21988;BME280;11158;53.404;-1.510;2023-07-30T13:18:24;99630.97;;;24.52;37.12
21988;BME280;11158;53.404;-1.510;2023-07-30T13:21:08;99633.28;;;24.78;37.48
21988;BME280;11158;53.404;-1.510;2023-07-30T13:23:52;99629.72;;;24.20;38.28
21988;BME280;11158;53.404;-1.510;2023-07-30T13:26:36;99644.84;;;23.35;39.90
21988;BME280;11158;53.404;-1.510;2023-07-30T13:29:20;99640.88;;;23.23;40.21
21988;BME280;11158;53.404;-1.510;2023-07-30T13:32:04;99638.34;;;24.28;38.09
21988;BME280;11158;53.404;-1.510;2023-07-30T13:34:49;99632.75;;;23.17;39.27
21988;BME280;11158;53.404;-1.510;2023-07-30T13:37:33;99636.16;;;23.87;38.75
21988;BME280;11158;53.404;-1.510;2023-07-30T13:40:17;99638.81;;;25.57;35.79
21988;BME280;11158;53.404;-1.510;2023-07-30T13:43:01;99640.41;;;25.58;35.00
21988;BME280;11158;53.404;-1.510;2023-07-30T13:45:45;99634.66;;;24.61;36.85
21988;BME280;11158;53.404;-1.510;2023-07-30T13:48:29;99641.72;;;24.00;37.39
21988;BME280;11158;53.404;-1.510;2023-07-30T13:51:13;99650.44;;;23.78;38.41
21988;BME280;11158;53.404;-1.510;2023-07-30T13:54:01;99642.41;;;24.54;37.22
21988;BME280;11158;53.404;-1.510;2023-07-30T13:56:45;99646.47;;;25.27;35.87
21988;BME280;11158;53.404;-1.510;2023-07-30T13:59:29;99643.72;;;24.95;36.06
21988;BME280;11158;53.404;-1.510;2023-07-30T14:02:13;99636.31;;;24.38;37.12
21988;BME280;11158;53.404;-1.510;2023-07-30T14:04:57;99638.00;;;23.91;37.38
21988;BME280;11158;53.404;-1.510;2023-07-30T14:07:42;99639.13;;;23.61;38.74
21988;BME280;11158;53.404;-1.510;2023-07-30T14:10:26;99630.25;;;24.22;37.70
21988;BME280;11158;53.404;-1.510;2023-07-30T14:13:11;99630.94;;;24.33;37.39
21988;BME280;11158;53.404;-1.510;2023-07-30T14:15:56;99637.13;;;23.96;38.40
21988;BME280;11158;53.404;-1.510;2023-07-30T14:18:40;99632.16;;;23.79;39.84
21988;BME280;11158;53.404;-1.510;2023-07-30T14:21:24;99638.94;;;23.28;40.25